Sao Simao, Brazil
Current Conditions -  °F | °C
As of 4:00 AM on Thursday 23 Oct 2014 (Local Time) from SBRP Reporting Station
Clear Clear  
Wind Chill: 72°   Ceiling: Unl
Heat Index: 72°   Visibility: 6mi
Dew Point: 59°   Wind: 8mph
Humidity: 64%   Direction: 110°ESE
Pressure: 30.03"   Gusts: NA
Location:  21.48°S, 47.55°W
Report Text: SBRP 230600Z 11007KT CAVOK 22/15 Q1017
Loading
Personal Weather Stations






























Interactive Weather Map
Tropical Storm Tracking
New forecast layout! Learn more

10-Day Weather Forecast

Advertisements
Track Severe Weather on mobile